sensor_id;sensor_type;location;lat;lon;timestamp;temperature;humidity
44559;DHT22;30270;40.238;18.256;2022-10-22T00:01:10;16.00;99.90
44559;DHT22;30270;40.238;18.256;2022-10-22T00:03:38;16.00;99.90
44559;DHT22;30270;40.238;18.256;2022-10-22T00:06:06;15.90;99.90
44559;DHT22;30270;40.238;18.256;2022-10-22T00:08:34;15.70;99.90
44559;DHT22;30270;40.238;18.256;2022-10-22T00:11:28;15.80;99.90
44559;DHT22;30270;40.238;18.256;2022-10-22T00:13:56;15.80;99.90
44559;DHT22;30270;40.238;18.256;2022-10-22T00:16:24;15.80;99.90
44559;DHT22;30270;40.238;18.256;2022-10-22T00:18:52;15.80;99.90
44559;DHT22;30270;40.238;18.256;2022-10-22T00:21:19;15.80;99.90
44559;DHT22;30270;40.238;18.256;2022-10-22T00:23:47;15.90;99.90
44559;DHT22;30270;40.238;18.256;2022-10-22T00:26:15;15.80;99.90
44559;DHT22;30270;40.238;18.256;2022-10-22T00:28:43;15.80;99.90
44559;DHT22;30270;40.238;18.256;2022-10-22T00:31:11;15.90;99.90
44559;DHT22;30270;40.238;18.256;2022-10-22T00:33:39;15.90;99.90
44559;DHT22;30270;40.238;18.256;2022-10-22T00:36:07;15.90;99.90
44559;DHT22;30270;40.238;18.256;2022-10-22T00:38:35;15.90;99.90
44559;DHT22;30270;40.238;18.256;2022-10-22T00:41:03;15.90;99.90
44559;DHT22;30270;40.238;18.256;2022-10-22T00:43:31;15.90;99.90
44559;DHT22;30270;40.238;18.256;2022-10-22T00:45:58;15.90;99.90
44559;DHT22;30270;40.238;18.256;2022-10-22T00:48:29;15.90;99.90
44559;DHT22;30270;40.238;18.256;2022-10-22T00:51:03;15.80;99.90
44559;DHT22;30270;40.238;18.256;2022-10-22T00:53:38;15.80;99.90
44559;DHT22;30270;40.238;18.256;2022-10-22T00:56:09;15.80;99.90
44559;DHT22;30270;40.238;18.256;2022-10-22T00:58:44;15.90;99.90
44559;DHT22;30270;40.238;18.256;2022-10-22T01:01:17;15.90;99.90
44559;DHT22;30270;40.238;18.256;2022-10-22T01:03:48;15.90;99.90
44559;DHT22;30270;40.238;18.256;2022-10-22T01:06:24;15.90;99.90
44559;DHT22;30270;40.238;18.256;2022-10-22T01:11:52;16.00;99.90
44559;DHT22;30270;40.238;18.256;2022-10-22T01:23:19;15.90;99.90
44559;DHT22;30270;40.238;18.256;2022-10-22T01:26:16;15.90;99.90
44559;DHT22;30270;40.238;18.256;2022-10-22T01:28:57;15.90;99.90
44559;DHT22;30270;40.238;18.256;2022-10-22T01:31:38;15.90;99.90
44559;DHT22;30270;40.238;18.256;2022-10-22T01:34:09;15.90;99.90
44559;DHT22;30270;40.238;18.256;2022-10-22T01:36:38;15.90;99.90
44559;DHT22;30270;40.238;18.256;2022-10-22T01:39:07;15.90;99.90
44559;DHT22;30270;40.238;18.256;2022-10-22T01:41:35;15.90;99.90
44559;DHT22;30270;40.238;18.256;2022-10-22T01:44:03;15.80;99.90
44559;DHT22;30270;40.238;18.256;2022-10-22T01:46:31;15.80;99.90
44559;DHT22;30270;40.238;18.256;2022-10-22T01:49:29;15.70;99.90
44559;DHT22;30270;40.238;18.256;2022-10-22T02:00:38;15.60;99.90
44559;DHT22;30270;40.238;18.256;2022-10-22T02:03:18;15.50;99.90
44559;DHT22;30270;40.238;18.256;2022-10-22T02:05:52;15.50;99.90
44559;DHT22;30270;40.238;18.256;2022-10-22T02:08:28;15.50;99.90
44559;DHT22;30270;40.238;18.256;2022-10-22T02:10:57;15.40;99.90
44559;DHT22;30270;40.238;18.256;2022-10-22T02:13:38;15.40;99.90
44559;DHT22;30270;40.238;18.256;2022-10-22T02:16:10;15.40;99.90
44559;DHT22;30270;40.238;18.256;2022-10-22T02:18:41;15.40;99.90
44559;DHT22;30270;40.238;18.256;2022-10-22T02:21:11;15.40;99.90
44559;DHT22;30270;40.238;18.256;2022-10-22T02:23:39;15.40;99.90
44559;DHT22;30270;40.238;18.256;2022-10-22T02:31:28;15.20;99.90
44559;DHT22;30270;40.238;18.256;2022-10-22T02:34:00;15.20;99.90
44559;DHT22;30270;40.238;18.256;2022-10-22T02:36:29;15.10;99.90
44559;DHT22;30270;40.238;18.256;2022-10-22T02:38:58;15.20;99.90
44559;DHT22;30270;40.238;18.256;2022-10-22T02:41:26;15.10;99.90
44559;DHT22;30270;40.238;18.256;2022-10-22T02:43:54;15.00;99.90
44559;DHT22;30270;40.238;18.256;2022-10-22T02:46:23;15.00;99.90
44559;DHT22;30270;40.238;18.256;2022-10-22T02:48:52;15.00;99.90
44559;DHT22;30270;40.238;18.256;2022-10-22T02:51:20;15.00;99.90
44559;DHT22;30270;40.238;18.256;2022-10-22T02:53:48;14.90;99.90
44559;DHT22;30270;40.238;18.256;2022-10-22T02:56:16;14.90;99.90
44559;DHT22;30270;40.238;18.256;2022-10-22T02:58:43;14.90;99.90
44559;DHT22;30270;40.238;18.256;2022-10-22T03:01:11;15.00;99.90
44559;DHT22;30270;40.238;18.256;2022-10-22T03:03:39;15.00;99.90
44559;DHT22;30270;40.238;18.256;2022-10-22T03:06:08;15.00;99.90
44559;DHT22;30270;40.238;18.256;2022-10-22T03:08:35;15.00;99.90
44559;DHT22;30270;40.238;18.256;2022-10-22T03:11:03;15.10;99.90
44559;DHT22;30270;40.238;18.256;2022-10-22T03:13:31;15.10;99.90
44559;DHT22;30270;40.238;18.256;2022-10-22T03:15:59;15.10;99.90
44559;DHT22;30270;40.238;18.256;2022-10-22T03:18:27;15.10;99.90
44559;DHT22;30270;40.238;18.256;2022-10-22T03:21:08;15.10;99.90
44559;DHT22;30270;40.238;18.256;2022-10-22T03:23:37;15.10;99.90
44559;DHT22;30270;40.238;18.256;2022-10-22T03:26:06;15.10;99.90
44559;DHT22;30270;40.238;18.256;2022-10-22T03:28:36;15.10;99.90
44559;DHT22;30270;40.238;18.256;2022-10-22T03:31:05;15.10;99.90
44559;DHT22;30270;40.238;18.256;2022-10-22T03:33:33;15.10;99.90
44559;DHT22;30270;40.238;18.256;2022-10-22T03:36:00;15.00;99.90
44559;DHT22;30270;40.238;18.256;2022-10-22T03:38:28;15.00;99.90
44559;DHT22;30270;40.238;18.256;2022-10-22T03:40:56;15.00;99.90
44559;DHT22;30270;40.238;18.256;2022-10-22T03:43:24;15.10;99.90
44559;DHT22;30270;40.238;18.256;2022-10-22T03:45:52;15.00;99.90
44559;DHT22;30270;40.238;18.256;2022-10-22T03:48:20;15.00;99.90
44559;DHT22;30270;40.238;18.256;2022-10-22T03:50:48;15.00;99.90
44559;DHT22;30270;40.238;18.256;2022-10-22T03:53:15;15.10;99.90
44559;DHT22;30270;40.238;18.256;2022-10-22T03:55:43;15.00;99.90
44559;DHT22;30270;40.238;18.256;2022-10-22T03:58:10;15.00;99.90
44559;DHT22;30270;40.238;18.256;2022-10-22T04:00:38;15.00;99.90
44559;DHT22;30270;40.238;18.256;2022-10-22T04:03:06;15.00;99.90
44559;DHT22;30270;40.238;18.256;2022-10-22T04:05:33;15.00;99.90
44559;DHT22;30270;40.238;18.256;2022-10-22T04:08:01;15.10;99.90
44559;DHT22;30270;40.238;18.256;2022-10-22T04:10:28;15.10;99.90
44559;DHT22;30270;40.238;18.256;2022-10-22T04:12:56;15.20;99.90
44559;DHT22;30270;40.238;18.256;2022-10-22T04:15:24;15.20;99.90
44559;DHT22;30270;40.238;18.256;2022-10-22T04:17:54;15.10;99.90
44559;DHT22;30270;40.238;18.256;2022-10-22T04:20:22;15.10;99.90
44559;DHT22;30270;40.238;18.256;2022-10-22T04:22:49;15.00;99.90
44559;DHT22;30270;40.238;18.256;2022-10-22T04:25:17;15.00;99.90
44559;DHT22;30270;40.238;18.256;2022-10-22T04:27:45;15.00;99.90
44559;DHT22;30270;40.238;18.256;2022-10-22T04:30:13;15.10;99.90
44559;DHT22;30270;40.238;18.256;2022-10-22T04:32:40;15.10;99.90
44559;DHT22;30270;40.238;18.256;2022-10-22T04:35:08;15.10;99.90
44559;DHT22;30270;40.238;18.256;2022-10-22T04:37:35;15.10;99.90
44559;DHT22;30270;40.238;18.256;2022-10-22T04:40:04;15.20;99.90
44559;DHT22;30270;40.238;18.256;2022-10-22T04:42:31;15.20;99.90
44559;DHT22;30270;40.238;18.256;2022-10-22T04:44:59;15.20;99.90
44559;DHT22;30270;40.238;18.256;2022-10-22T04:47:26;15.20;99.90
44559;DHT22;30270;40.238;18.256;2022-10-22T04:49:54;15.30;99.90
44559;DHT22;30270;40.238;18.256;2022-10-22T04:52:21;15.30;99.90
44559;DHT22;30270;40.238;18.256;2022-10-22T04:54:49;15.30;99.90
44559;DHT22;30270;40.238;18.256;2022-10-22T04:57:17;15.30;99.90
44559;DHT22;30270;40.238;18.256;2022-10-22T04:59:44;15.30;99.90
44559;DHT22;30270;40.238;18.256;2022-10-22T05:02:12;15.30;99.90
44559;DHT22;30270;40.238;18.256;2022-10-22T05:04:39;15.30;99.90
44559;DHT22;30270;40.238;18.256;2022-10-22T05:07:07;15.30;99.90
44559;DHT22;30270;40.238;18.256;2022-10-22T05:09:35;15.20;99.90
44559;DHT22;30270;40.238;18.256;2022-10-22T05:12:03;15.20;99.90
44559;DHT22;30270;40.238;18.256;2022-10-22T05:14:32;15.20;99.90
44559;DHT22;30270;40.238;18.256;2022-10-22T05:17:00;15.20;99.90
44559;DHT22;30270;40.238;18.256;2022-10-22T05:19:31;15.30;99.90
44559;DHT22;30270;40.238;18.256;2022-10-22T05:22:01;15.30;99.90
44559;DHT22;30270;40.238;18.256;2022-10-22T05:24:30;15.40;99.90
44559;DHT22;30270;40.238;18.256;2022-10-22T05:26:59;15.40;99.90
44559;DHT22;30270;40.238;18.256;2022-10-22T05:29:27;15.40;99.90
44559;DHT22;30270;40.238;18.256;2022-10-22T05:31:54;15.40;99.90
44559;DHT22;30270;40.238;18.256;2022-10-22T05:34:22;15.50;99.90
44559;DHT22;30270;40.238;18.256;2022-10-22T05:36:50;15.60;99.90
44559;DHT22;30270;40.238;18.256;2022-10-22T05:39:18;15.70;99.90
44559;DHT22;30270;40.238;18.256;2022-10-22T05:41:45;15.80;99.90
44559;DHT22;30270;40.238;18.256;2022-10-22T05:44:13;15.90;99.90
44559;DHT22;30270;40.238;18.256;2022-10-22T05:46:40;15.90;99.90
44559;DHT22;30270;40.238;18.256;2022-10-22T05:49:14;16.10;99.90
44559;DHT22;30270;40.238;18.256;2022-10-22T05:51:42;16.20;99.90
44559;DHT22;30270;40.238;18.256;2022-10-22T05:54:16;16.20;99.90
44559;DHT22;30270;40.238;18.256;2022-10-22T05:56:44;16.30;99.90
44559;DHT22;30270;40.238;18.256;2022-10-22T05:59:12;16.40;99.90
44559;DHT22;30270;40.238;18.256;2022-10-22T06:01:40;16.60;99.90
44559;DHT22;30270;40.238;18.256;2022-10-22T06:04:10;16.80;99.90
44559;DHT22;30270;40.238;18.256;2022-10-22T06:06:41;17.00;99.90
44559;DHT22;30270;40.238;18.256;2022-10-22T06:09:20;17.20;99.90
44559;DHT22;30270;40.238;18.256;2022-10-22T06:11:49;17.40;99.90
44559;DHT22;30270;40.238;18.256;2022-10-22T06:14:18;17.60;99.90
44559;DHT22;30270;40.238;18.256;2022-10-22T06:16:48;17.80;99.90
44559;DHT22;30270;40.238;18.256;2022-10-22T06:19:17;18.00;99.90
44559;DHT22;30270;40.238;18.256;2022-10-22T06:21:46;18.00;99.90
44559;DHT22;30270;40.238;18.256;2022-10-22T06:24:14;18.30;99.90
44559;DHT22;30270;40.238;18.256;2022-10-22T06:26:43;18.60;99.90
44559;DHT22;30270;40.238;18.256;2022-10-22T06:29:10;18.80;99.90
44559;DHT22;30270;40.238;18.256;2022-10-22T06:31:38;18.90;99.90
44559;DHT22;30270;40.238;18.256;2022-10-22T06:34:09;19.00;99.90
44559;DHT22;30270;40.238;18.256;2022-10-22T06:36:38;19.10;99.90
44559;DHT22;30270;40.238;18.256;2022-10-22T06:39:11;19.00;99.90
44559;DHT22;30270;40.238;18.256;2022-10-22T06:41:40;19.10;99.90
44559;DHT22;30270;40.238;18.256;2022-10-22T06:44:13;19.10;99.90
44559;DHT22;30270;40.238;18.256;2022-10-22T06:46:41;19.00;99.90
44559;DHT22;30270;40.238;18.256;2022-10-22T06:49:12;18.80;99.90
44559;DHT22;30270;40.238;18.256;2022-10-22T06:51:40;18.90;99.90
44559;DHT22;30270;40.238;18.256;2022-10-22T06:54:09;19.00;99.90
44559;DHT22;30270;40.238;18.256;2022-10-22T06:56:36;19.10;99.90
44559;DHT22;30270;40.238;18.256;2022-10-22T06:59:04;19.20;99.90
44559;DHT22;30270;40.238;18.256;2022-10-22T07:01:33;19.20;99.90
44559;DHT22;30270;40.238;18.256;2022-10-22T07:04:01;19.40;99.90
44559;DHT22;30270;40.238;18.256;2022-10-22T07:06:29;19.40;99.90
44559;DHT22;30270;40.238;18.256;2022-10-22T07:08:58;19.50;99.90
44559;DHT22;30270;40.238;18.256;2022-10-22T07:11:28;19.50;99.90
44559;DHT22;30270;40.238;18.256;2022-10-22T07:13:58;19.70;99.90
44559;DHT22;30270;40.238;18.256;2022-10-22T07:16:26;19.90;99.90
44559;DHT22;30270;40.238;18.256;2022-10-22T07:18:54;20.00;99.90
44559;DHT22;30270;40.238;18.256;2022-10-22T07:21:22;20.10;99.90
44559;DHT22;30270;40.238;18.256;2022-10-22T07:23:52;20.00;99.90
44559;DHT22;30270;40.238;18.256;2022-10-22T07:26:20;20.20;99.90
44559;DHT22;30270;40.238;18.256;2022-10-22T07:28:47;20.30;99.90
44559;DHT22;30270;40.238;18.256;2022-10-22T07:31:16;20.30;99.90
44559;DHT22;30270;40.238;18.256;2022-10-22T07:33:44;20.30;99.90
44559;DHT22;30270;40.238;18.256;2022-10-22T07:36:14;20.40;99.90
44559;DHT22;30270;40.238;18.256;2022-10-22T07:38:45;20.60;99.90
44559;DHT22;30270;40.238;18.256;2022-10-22T07:41:14;20.50;99.90
44559;DHT22;30270;40.238;18.256;2022-10-22T07:43:43;20.70;99.90
44559;DHT22;30270;40.238;18.256;2022-10-22T07:46:11;20.80;99.90
44559;DHT22;30270;40.238;18.256;2022-10-22T07:48:39;20.80;99.90
44559;DHT22;30270;40.238;18.256;2022-10-22T07:51:07;20.90;99.90
44559;DHT22;30270;40.238;18.256;2022-10-22T07:53:35;20.80;99.90
44559;DHT22;30270;40.238;18.256;2022-10-22T07:56:03;20.80;99.90
44559;DHT22;30270;40.238;18.256;2022-10-22T07:58:31;21.00;99.90
44559;DHT22;30270;40.238;18.256;2022-10-22T08:01:00;21.30;99.90
44559;DHT22;30270;40.238;18.256;2022-10-22T08:03:28;21.30;99.90
44559;DHT22;30270;40.238;18.256;2022-10-22T08:05:56;21.10;99.90
44559;DHT22;30270;40.238;18.256;2022-10-22T08:08:25;21.20;99.90
44559;DHT22;30270;40.238;18.256;2022-10-22T08:10:54;21.20;99.90
44559;DHT22;30270;40.238;18.256;2022-10-22T08:13:23;21.10;99.90
44559;DHT22;30270;40.238;18.256;2022-10-22T08:15:50;21.20;99.90
44559;DHT22;30270;40.238;18.256;2022-10-22T08:18:18;21.30;99.90
44559;DHT22;30270;40.238;18.256;2022-10-22T08:20:46;21.60;99.90
44559;DHT22;30270;40.238;18.256;2022-10-22T08:23:13;21.70;99.90
44559;DHT22;30270;40.238;18.256;2022-10-22T08:25:41;21.80;99.90
44559;DHT22;30270;40.238;18.256;2022-10-22T08:28:09;21.80;99.90
44559;DHT22;30270;40.238;18.256;2022-10-22T08:30:37;22.00;99.90
44559;DHT22;30270;40.238;18.256;2022-10-22T08:33:05;22.20;99.90
44559;DHT22;30270;40.238;18.256;2022-10-22T08:35:33;22.20;99.90
44559;DHT22;30270;40.238;18.256;2022-10-22T08:38:01;22.20;99.90
44559;DHT22;30270;40.238;18.256;2022-10-22T08:40:36;22.20;99.90
44559;DHT22;30270;40.238;18.256;2022-10-22T08:43:08;22.20;99.90
44559;DHT22;30270;40.238;18.256;2022-10-22T08:48:57;22.20;99.90
44559;DHT22;30270;40.238;18.256;2022-10-22T08:51:29;22.40;99.90
44559;DHT22;30270;40.238;18.256;2022-10-22T08:56:49;22.40;99.90
44559;DHT22;30270;40.238;18.256;2022-10-22T08:59:42;22.50;99.90
44559;DHT22;30270;40.238;18.256;2022-10-22T09:07:54;23.10;99.90
44559;DHT22;30270;40.238;18.256;2022-10-22T09:10:34;23.20;99.90
44559;DHT22;30270;40.238;18.256;2022-10-22T09:13:03;23.10;99.90
44559;DHT22;30270;40.238;18.256;2022-10-22T09:15:31;23.20;99.90
44559;DHT22;30270;40.238;18.256;2022-10-22T09:18:10;23.40;99.90
44559;DHT22;30270;40.238;18.256;2022-10-22T09:21:09;23.30;99.90
44559;DHT22;30270;40.238;18.256;2022-10-22T09:26:36;23.40;99.90
44559;DHT22;30270;40.238;18.256;2022-10-22T09:29:06;23.50;99.90
44559;DHT22;30270;40.238;18.256;2022-10-22T09:31:34;23.50;99.90
44559;DHT22;30270;40.238;18.256;2022-10-22T09:34:01;23.40;99.90
44559;DHT22;30270;40.238;18.256;2022-10-22T09:36:34;23.60;99.90
44559;DHT22;30270;40.238;18.256;2022-10-22T09:39:02;23.80;99.90
44559;DHT22;30270;40.238;18.256;2022-10-22T09:41:30;23.90;99.90
44559;DHT22;30270;40.238;18.256;2022-10-22T09:43:58;24.00;99.90
44559;DHT22;30270;40.238;18.256;2022-10-22T09:46:28;24.00;99.90
44559;DHT22;30270;40.238;18.256;2022-10-22T09:49:04;24.10;99.90
44559;DHT22;30270;40.238;18.256;2022-10-22T09:51:57;24.00;99.90
44559;DHT22;30270;40.238;18.256;2022-10-22T09:54:40;24.10;99.90
44559;DHT22;30270;40.238;18.256;2022-10-22T09:57:16;24.10;99.90
44559;DHT22;30270;40.238;18.256;2022-10-22T09:59:48;24.00;99.90
44559;DHT22;30270;40.238;18.256;2022-10-22T10:02:21;23.60;99.90
44559;DHT22;30270;40.238;18.256;2022-10-22T10:05:04;23.50;99.90
44559;DHT22;30270;40.238;18.256;2022-10-22T10:07:34;23.50;99.90
44559;DHT22;30270;40.238;18.256;2022-10-22T10:10:29;23.70;99.90
44559;DHT22;30270;40.238;18.256;2022-10-22T10:16:06;23.80;99.90
44559;DHT22;30270;40.238;18.256;2022-10-22T10:24:36;23.90;99.90
44559;DHT22;30270;40.238;18.256;2022-10-22T10:27:27;24.10;99.90
44559;DHT22;30270;40.238;18.256;2022-10-22T10:53:59;24.10;99.90
44559;DHT22;30270;40.238;18.256;2022-10-22T10:56:44;24.10;99.90
44559;DHT22;30270;40.238;18.256;2022-10-22T11:07:45;23.70;99.90
44559;DHT22;30270;40.238;18.256;2022-10-22T11:13:13;23.90;99.90
44559;DHT22;30270;40.238;18.256;2022-10-22T11:15:46;24.20;99.90
44559;DHT22;30270;40.238;18.256;2022-10-22T11:18:35;24.10;99.90
44559;DHT22;30270;40.238;18.256;2022-10-22T11:23:56;24.10;99.90
44559;DHT22;30270;40.238;18.256;2022-10-22T11:26:51;23.80;99.90
44559;DHT22;30270;40.238;18.256;2022-10-22T11:29:24;23.70;99.90
44559;DHT22;30270;40.238;18.256;2022-10-22T11:31:55;23.90;99.90
44559;DHT22;30270;40.238;18.256;2022-10-22T11:34:31;24.10;99.90
44559;DHT22;30270;40.238;18.256;2022-10-22T11:37:02;24.10;99.90
44559;DHT22;30270;40.238;18.256;2022-10-22T11:39:54;24.20;99.90
44559;DHT22;30270;40.238;18.256;2022-10-22T11:42:43;24.20;99.90
44559;DHT22;30270;40.238;18.256;2022-10-22T11:50:50;24.00;99.90
44559;DHT22;30270;40.238;18.256;2022-10-22T11:53:35;24.10;99.90
44559;DHT22;30270;40.238;18.256;2022-10-22T11:56:22;24.50;99.90
44559;DHT22;30270;40.238;18.256;2022-10-22T11:58:51;24.50;99.90
44559;DHT22;30270;40.238;18.256;2022-10-22T12:01:24;24.50;99.90
44559;DHT22;30270;40.238;18.256;2022-10-22T12:06:26;24.30;99.90
44559;DHT22;30270;40.238;18.256;2022-10-22T12:08:58;24.00;99.90
44559;DHT22;30270;40.238;18.256;2022-10-22T12:19:28;24.00;99.90
44559;DHT22;30270;40.238;18.256;2022-10-22T12:24:42;24.00;99.90
44559;DHT22;30270;40.238;18.256;2022-10-22T12:27:24;24.00;99.90
44559;DHT22;30270;40.238;18.256;2022-10-22T12:30:00;24.10;99.90
44559;DHT22;30270;40.238;18.256;2022-10-22T12:32:35;24.20;99.90
44559;DHT22;30270;40.238;18.256;2022-10-22T12:35:07;23.80;99.90
44559;DHT22;30270;40.238;18.256;2022-10-22T12:37:36;23.50;99.90
44559;DHT22;30270;40.238;18.256;2022-10-22T12:40:23;23.30;99.90
44559;DHT22;30270;40.238;18.256;2022-10-22T12:43:10;23.40;99.90
44559;DHT22;30270;40.238;18.256;2022-10-22T12:45:38;23.40;99.90
44559;DHT22;30270;40.238;18.256;2022-10-22T12:50:56;23.40;99.90
44559;DHT22;30270;40.238;18.256;2022-10-22T12:53:36;23.40;99.90
44559;DHT22;30270;40.238;18.256;2022-10-22T12:56:21;23.30;99.90
44559;DHT22;30270;40.238;18.256;2022-10-22T12:58:56;23.40;99.90
44559;DHT22;30270;40.238;18.256;2022-10-22T13:01:27;23.30;99.90
44559;DHT22;30270;40.238;18.256;2022-10-22T13:09:56;23.40;99.90
44559;DHT22;30270;40.238;18.256;2022-10-22T13:12:26;23.30;99.90
44559;DHT22;30270;40.238;18.256;2022-10-22T13:14:54;23.30;99.90
44559;DHT22;30270;40.238;18.256;2022-10-22T13:17:40;23.20;99.90
44559;DHT22;30270;40.238;18.256;2022-10-22T13:20:22;23.20;99.90
44559;DHT22;30270;40.238;18.256;2022-10-22T13:23:01;23.20;99.90
44559;DHT22;30270;40.238;18.256;2022-10-22T13:25:37;23.20;99.90
44559;DHT22;30270;40.238;18.256;2022-10-22T13:28:19;23.10;99.90
44559;DHT22;30270;40.238;18.256;2022-10-22T13:30:54;23.10;99.90
44559;DHT22;30270;40.238;18.256;2022-10-22T13:33:25;23.20;99.90
44559;DHT22;30270;40.238;18.256;2022-10-22T13:35:55;23.10;99.90
44559;DHT22;30270;40.238;18.256;2022-10-22T13:38:26;23.00;99.90
44559;DHT22;30270;40.238;18.256;2022-10-22T13:40:54;23.10;99.90
44559;DHT22;30270;40.238;18.256;2022-10-22T13:43:22;23.10;99.90
44559;DHT22;30270;40.238;18.256;2022-10-22T13:45:54;22.90;99.90
44559;DHT22;30270;40.238;18.256;2022-10-22T13:48:24;22.80;99.90
44559;DHT22;30270;40.238;18.256;2022-10-22T13:50:53;22.80;99.90
44559;DHT22;30270;40.238;18.256;2022-10-22T13:53:27;22.80;99.90
44559;DHT22;30270;40.238;18.256;2022-10-22T13:55:55;22.90;99.90
44559;DHT22;30270;40.238;18.256;2022-10-22T13:58:23;22.80;99.90
44559;DHT22;30270;40.238;18.256;2022-10-22T14:01:01;22.70;99.90
44559;DHT22;30270;40.238;18.256;2022-10-22T14:03:37;22.70;99.90
44559;DHT22;30270;40.238;18.256;2022-10-22T14:06:12;22.60;99.90
44559;DHT22;30270;40.238;18.256;2022-10-22T14:08:41;22.60;99.90
44559;DHT22;30270;40.238;18.256;2022-10-22T14:11:10;22.50;99.90
44559;DHT22;30270;40.238;18.256;2022-10-22T14:13:38;22.60;99.90
44559;DHT22;30270;40.238;18.256;2022-10-22T14:16:20;22.60;99.90
44559;DHT22;30270;40.238;18.256;2022-10-22T14:18:49;22.60;99.90
44559;DHT22;30270;40.238;18.256;2022-10-22T14:21:18;22.60;99.90
44559;DHT22;30270;40.238;18.256;2022-10-22T14:23:47;22.50;99.90
44559;DHT22;30270;40.238;18.256;2022-10-22T14:26:42;22.50;99.90
44559;DHT22;30270;40.238;18.256;2022-10-22T14:29:10;22.50;99.90
44559;DHT22;30270;40.238;18.256;2022-10-22T14:31:39;22.50;99.90
44559;DHT22;30270;40.238;18.256;2022-10-22T14:34:14;22.50;99.90
44559;DHT22;30270;40.238;18.256;2022-10-22T14:36:42;22.40;99.90
44559;DHT22;30270;40.238;18.256;2022-10-22T14:39:11;22.40;99.90
44559;DHT22;30270;40.238;18.256;2022-10-22T14:41:40;22.30;99.90
44559;DHT22;30270;40.238;18.256;2022-10-22T14:44:10;22.30;99.90
44559;DHT22;30270;40.238;18.256;2022-10-22T14:46:40;22.30;99.90
44559;DHT22;30270;40.238;18.256;2022-10-22T14:49:10;22.30;99.90
44559;DHT22;30270;40.238;18.256;2022-10-22T14:51:38;22.30;99.90
44559;DHT22;30270;40.238;18.256;2022-10-22T14:54:06;22.30;99.90
44559;DHT22;30270;40.238;18.256;2022-10-22T14:56:33;22.30;99.90
44559;DHT22;30270;40.238;18.256;2022-10-22T14:59:02;22.40;99.90
44559;DHT22;30270;40.238;18.256;2022-10-22T15:01:29;22.30;99.90
44559;DHT22;30270;40.238;18.256;2022-10-22T15:03:57;22.30;99.90
44559;DHT22;30270;40.238;18.256;2022-10-22T15:06:25;22.20;99.90
44559;DHT22;30270;40.238;18.256;2022-10-22T15:08:56;22.20;99.90
44559;DHT22;30270;40.238;18.256;2022-10-22T15:11:24;22.20;99.90
44559;DHT22;30270;40.238;18.256;2022-10-22T15:13:51;22.20;99.90
44559;DHT22;30270;40.238;18.256;2022-10-22T15:16:19;22.10;99.90
44559;DHT22;30270;40.238;18.256;2022-10-22T15:18:46;22.10;99.90
44559;DHT22;30270;40.238;18.256;2022-10-22T15:21:17;22.00;99.90
44559;DHT22;30270;40.238;18.256;2022-10-22T15:23:46;22.00;99.90
44559;DHT22;30270;40.238;18.256;2022-10-22T15:26:15;21.90;99.90
44559;DHT22;30270;40.238;18.256;2022-10-22T15:28:43;21.80;99.90
44559;DHT22;30270;40.238;18.256;2022-10-22T15:31:13;21.80;99.90
44559;DHT22;30270;40.238;18.256;2022-10-22T15:33:41;21.80;99.90
44559;DHT22;30270;40.238;18.256;2022-10-22T15:36:12;21.70;99.90
44559;DHT22;30270;40.238;18.256;2022-10-22T15:38:41;21.60;99.90
44559;DHT22;30270;40.238;18.256;2022-10-22T15:41:10;21.60;99.90
44559;DHT22;30270;40.238;18.256;2022-10-22T15:43:39;21.50;99.90
44559;DHT22;30270;40.238;18.256;2022-10-22T15:46:15;21.50;99.90
44559;DHT22;30270;40.238;18.256;2022-10-22T15:48:45;21.40;99.90
44559;DHT22;30270;40.238;18.256;2022-10-22T15:51:17;21.40;99.90
44559;DHT22;30270;40.238;18.256;2022-10-22T15:53:56;21.30;99.90
44559;DHT22;30270;40.238;18.256;2022-10-22T15:56:27;21.30;99.90
44559;DHT22;30270;40.238;18.256;2022-10-22T15:58:57;21.20;99.90
44559;DHT22;30270;40.238;18.256;2022-10-22T16:01:27;21.20;99.90
44559;DHT22;30270;40.238;18.256;2022-10-22T16:03:56;21.10;99.90
44559;DHT22;30270;40.238;18.256;2022-10-22T16:08:58;20.90;99.90
44559;DHT22;30270;40.238;18.256;2022-10-22T16:11:27;20.80;99.90
44559;DHT22;30270;40.238;18.256;2022-10-22T16:13:57;20.70;99.90
44559;DHT22;30270;40.238;18.256;2022-10-22T16:16:27;20.60;99.90
44559;DHT22;30270;40.238;18.256;2022-10-22T16:18:56;20.50;99.90
44559;DHT22;30270;40.238;18.256;2022-10-22T16:21:24;20.40;99.90
44559;DHT22;30270;40.238;18.256;2022-10-22T16:23:53;20.40;99.90
44559;DHT22;30270;40.238;18.256;2022-10-22T16:26:21;20.30;99.90
44559;DHT22;30270;40.238;18.256;2022-10-22T16:28:48;20.30;99.90
44559;DHT22;30270;40.238;18.256;2022-10-22T16:31:18;20.30;99.90
44559;DHT22;30270;40.238;18.256;2022-10-22T16:33:50;20.20;99.90
44559;DHT22;30270;40.238;18.256;2022-10-22T16:36:20;20.20;99.90
44559;DHT22;30270;40.238;18.256;2022-10-22T16:38:48;20.10;99.90
44559;DHT22;30270;40.238;18.256;2022-10-22T16:41:21;20.10;99.90
44559;DHT22;30270;40.238;18.256;2022-10-22T16:43:53;20.10;99.90
44559;DHT22;30270;40.238;18.256;2022-10-22T16:46:21;20.00;99.90
44559;DHT22;30270;40.238;18.256;2022-10-22T16:48:51;20.00;99.90
44559;DHT22;30270;40.238;18.256;2022-10-22T16:51:24;19.90;99.90
44559;DHT22;30270;40.238;18.256;2022-10-22T16:53:54;19.90;99.90
44559;DHT22;30270;40.238;18.256;2022-10-22T16:56:23;19.90;99.90
44559;DHT22;30270;40.238;18.256;2022-10-22T16:58:54;19.80;99.90
44559;DHT22;30270;40.238;18.256;2022-10-22T17:01:27;19.80;99.90
44559;DHT22;30270;40.238;18.256;2022-10-22T17:03:59;19.80;99.90
44559;DHT22;30270;40.238;18.256;2022-10-22T17:06:27;19.80;99.90
44559;DHT22;30270;40.238;18.256;2022-10-22T17:08:55;19.70;99.90
44559;DHT22;30270;40.238;18.256;2022-10-22T17:11:23;19.60;99.90
44559;DHT22;30270;40.238;18.256;2022-10-22T17:13:53;19.60;99.90
44559;DHT22;30270;40.238;18.256;2022-10-22T17:16:23;19.50;99.90
44559;DHT22;30270;40.238;18.256;2022-10-22T17:18:52;19.50;99.90
44559;DHT22;30270;40.238;18.256;2022-10-22T17:21:21;19.50;99.90
44559;DHT22;30270;40.238;18.256;2022-10-22T17:23:53;19.50;99.90
44559;DHT22;30270;40.238;18.256;2022-10-22T17:26:23;19.40;99.90
44559;DHT22;30270;40.238;18.256;2022-10-22T17:28:53;19.50;99.90
44559;DHT22;30270;40.238;18.256;2022-10-22T17:31:28;19.40;99.90
44559;DHT22;30270;40.238;18.256;2022-10-22T17:33:59;19.50;99.90
44559;DHT22;30270;40.238;18.256;2022-10-22T17:36:28;19.40;99.90